Time;durP1;ratioP1;P1;durP2;ratioP2;P2;SDS_P1;SDS_P2;PMS_P1;PMS_P2;Temp;Humidity;BMP_temperature;BMP_pressure;BME280_temperature;BME280_humidity;BME280_pressure;Samples;Min_cycle;Max_cycle;Signal;HPM_P1;HPM_P2
2021/07/09 00:01:48;;;;;;;4.72;4.32;;;18.10;99.90;;;;;;4994868;28;20100;-73
2021/07/09 00:04:15;;;;;;;5.07;4.15;;;18.20;99.90;;;;;;4995409;28;20508;-73
2021/07/09 00:06:43;;;;;;;5.88;4.07;;;18.10;99.90;;;;;;4995271;28;20580;-74
2021/07/09 00:09:10;;;;;;;4.53;4.20;;;18.10;99.90;;;;;;4994707;28;20054;-73
2021/07/09 00:11:39;;;;;;;5.45;4.95;;;18.10;99.90;;;;;;4995077;28;20553;-73
2021/07/09 00:14:08;;;;;;;5.95;4.85;;;18.10;99.90;;;;;;4991005;28;20069;-70
2021/07/09 00:16:35;;;;;;;6.75;4.30;;;18.00;99.90;;;;;;4995060;28;20053;-72
2021/07/09 00:19:03;;;;;;;6.13;4.82;;;18.00;99.90;;;;;;4994635;28;20386;-72
2021/07/09 00:21:31;;;;;;;4.85;4.47;;;18.00;99.90;;;;;;4995735;28;20046;-72
2021/07/09 00:23:58;;;;;;;6.28;5.22;;;18.00;99.90;;;;;;4995869;28;20093;-71
2021/07/09 00:26:24;;;;;;;5.43;4.93;;;17.90;99.90;;;;;;4994690;28;20565;-71
2021/07/09 00:28:52;;;;;;;5.90;5.30;;;17.90;99.90;;;;;;4993889;28;20050;-72
2021/07/09 00:31:19;;;;;;;8.27;5.45;;;17.80;99.90;;;;;;4993562;28;20105;-71
2021/07/09 00:33:46;;;;;;;6.68;5.32;;;17.80;99.90;;;;;;4993657;28;20076;-71
2021/07/09 00:36:12;;;;;;;5.35;4.85;;;17.70;99.90;;;;;;4993670;28;20046;-73
2021/07/09 00:38:39;;;;;;;7.75;6.15;;;17.80;99.90;;;;;;4993085;28;20046;-70
2021/07/09 00:41:06;;;;;;;6.30;5.68;;;17.70;99.90;;;;;;4993688;28;20050;-72
2021/07/09 00:43:32;;;;;;;9.40;6.55;;;17.70;99.90;;;;;;4993493;28;20486;-71
2021/07/09 00:46:00;;;;;;;9.38;6.82;;;17.80;99.90;;;;;;4993152;28;20058;-70
2021/07/09 00:48:28;;;;;;;9.13;6.57;;;17.90;99.90;;;;;;4992898;28;20490;-70
2021/07/09 00:50:56;;;;;;;7.07;5.70;;;17.90;99.90;;;;;;4993589;28;20050;-70
2021/07/09 00:53:23;;;;;;;9.07;6.45;;;17.90;99.90;;;;;;4993346;28;20050;-71
2021/07/09 00:55:49;;;;;;;6.78;5.85;;;17.90;99.90;;;;;;4993618;28;20050;-71
2021/07/09 00:58:16;;;;;;;7.28;6.57;;;17.90;99.90;;;;;;4995175;28;20054;-75
2021/07/09 01:00:43;;;;;;;8.63;6.97;;;17.80;99.90;;;;;;4995435;28;20415;-72
2021/07/09 01:03:11;;;;;;;9.55;6.97;;;17.70;99.90;;;;;;4995528;28;20054;-72
2021/07/09 01:05:38;;;;;;;9.05;6.57;;;17.70;99.90;;;;;;4995001;28;20046;-72
2021/07/09 01:08:05;;;;;;;9.52;7.13;;;17.70;99.90;;;;;;4994844;28;20046;-71
2021/07/09 01:10:33;;;;;;;10.52;7.43;;;17.70;99.90;;;;;;4992292;28;20391;-71
2021/07/09 01:13:00;;;;;;;8.68;7.55;;;17.70;99.90;;;;;;4992754;28;20102;-71
2021/07/09 01:15:27;;;;;;;11.00;7.45;;;17.70;99.90;;;;;;4992929;28;20120;-70
2021/07/09 01:17:54;;;;;;;9.48;7.15;;;17.70;99.90;;;;;;4991890;28;20100;-69
2021/07/09 01:20:22;;;;;;;10.70;7.05;;;17.70;99.90;;;;;;4992455;28;20545;-70
2021/07/09 01:22:50;;;;;;;9.73;7.45;;;17.70;99.90;;;;;;4992530;28;20046;-70
2021/07/09 01:25:20;;;;;;;10.88;7.35;;;17.70;99.90;;;;;;4992272;28;20458;-71
2021/07/09 01:27:49;;;;;;;9.65;7.90;;;17.60;99.90;;;;;;4992676;28;20105;-70
2021/07/09 01:30:18;;;;;;;10.32;7.13;;;17.60;99.90;;;;;;4991921;28;20352;-71
2021/07/09 01:32:45;;;;;;;7.95;6.88;;;17.60;99.90;;;;;;4992641;28;20046;-71
2021/07/09 01:35:13;;;;;;;8.68;6.90;;;17.60;99.90;;;;;;4992872;28;20047;-72
2021/07/09 01:37:40;;;;;;;12.50;8.45;;;17.60;99.90;;;;;;4992581;28;20039;-72
2021/07/09 01:40:08;;;;;;;9.07;7.15;;;17.50;99.90;;;;;;4992052;28;20462;-71
2021/07/09 01:42:37;;;;;;;10.05;7.28;;;17.50;99.90;;;;;;4992402;28;20117;-72
2021/07/09 01:45:05;;;;;;;8.65;7.18;;;17.60;99.90;;;;;;4992217;28;20042;-72
2021/07/09 01:47:32;;;;;;;10.82;7.15;;;17.50;99.90;;;;;;4992352;28;20104;-71
2021/07/09 01:50:00;;;;;;;10.13;7.55;;;17.60;99.90;;;;;;4991597;28;20043;-73
2021/07/09 01:52:28;;;;;;;11.25;7.75;;;17.60;99.90;;;;;;4992493;28;20050;-74
2021/07/09 01:54:59;;;;;;;8.52;7.20;;;17.60;99.90;;;;;;4992963;28;20046;-73
2021/07/09 01:57:26;;;;;;;7.18;6.45;;;17.50;99.90;;;;;;4975012;28;20455;-73
2021/07/09 01:59:55;;;;;;;7.70;6.70;;;17.50;99.90;;;;;;4991881;28;20042;-73
2021/07/09 02:02:21;;;;;;;9.65;7.50;;;17.40;99.90;;;;;;4993677;28;20046;-74
2021/07/09 02:04:50;;;;;;;11.98;7.22;;;17.40;99.90;;;;;;4993310;28;20453;-73
2021/07/09 02:07:19;;;;;;;9.02;7.70;;;17.50;99.90;;;;;;4993189;28;20166;-73
2021/07/09 02:09:47;;;;;;;10.68;7.72;;;17.50;99.90;;;;;;4992934;28;20055;-72
2021/07/09 02:12:15;;;;;;;10.35;7.90;;;17.50;99.90;;;;;;4993571;28;20046;-71
2021/07/09 02:14:42;;;;;;;9.57;6.60;;;17.50;99.90;;;;;;4993636;28;20054;-72
2021/07/09 02:17:13;;;;;;;14.50;8.00;;;17.50;99.90;;;;;;4994271;28;20572;-74
2021/07/09 02:19:41;;;;;;;9.02;7.22;;;17.50;99.90;;;;;;4996500;28;20054;-72
2021/07/09 02:22:11;;;;;;;8.38;7.55;;;17.40;99.90;;;;;;4997409;28;20054;-71
2021/07/09 02:24:37;;;;;;;10.63;8.52;;;17.40;99.90;;;;;;4996130;28;20126;-71
2021/07/09 02:27:05;;;;;;;10.32;7.22;;;17.40;99.90;;;;;;4995835;28;20039;-71
2021/07/09 02:29:33;;;;;;;11.95;7.45;;;17.40;99.90;;;;;;4995434;28;20050;-72
2021/07/09 02:32:00;;;;;;;9.30;7.75;;;17.40;99.90;;;;;;4995907;28;20046;-71
2021/07/09 02:34:30;;;;;;;10.32;8.15;;;17.50;99.90;;;;;;4996668;28;20050;-71
2021/07/09 02:36:57;;;;;;;12.40;7.22;;;17.50;99.90;;;;;;4996172;28;20042;-71
2021/07/09 02:39:25;;;;;;;8.75;6.78;;;17.50;99.90;;;;;;4978986;28;20043;-71
2021/07/09 02:41:52;;;;;;;12.18;8.85;;;17.50;99.90;;;;;;4995592;28;20490;-72
2021/07/09 02:44:19;;;;;;;8.88;7.25;;;17.40;99.90;;;;;;4995589;28;20046;-72
2021/07/09 02:46:45;;;;;;;10.90;8.00;;;17.50;99.90;;;;;;4995683;28;20104;-71
2021/07/09 02:49:12;;;;;;;8.45;6.18;;;17.50;99.90;;;;;;4994950;28;20050;-71
2021/07/09 02:51:46;;;;;;;12.68;7.32;;;17.50;99.90;;;;;;4996587;28;20042;-71
2021/07/09 02:54:13;;;;;;;12.43;8.27;;;17.50;99.90;;;;;;4995819;28;20104;-71
2021/07/09 02:56:40;;;;;;;11.43;8.50;;;17.40;99.90;;;;;;4995627;28;20054;-72
2021/07/09 02:59:06;;;;;;;10.38;7.22;;;17.40;99.90;;;;;;4994942;28;20042;-72
2021/07/09 03:01:33;;;;;;;8.73;6.32;;;17.40;99.90;;;;;;4993623;28;20050;-72
2021/07/09 03:04:00;;;;;;;9.40;7.60;;;17.40;99.90;;;;;;4976193;28;20054;-73
2021/07/09 03:06:27;;;;;;;8.95;7.20;;;17.40;99.90;;;;;;4986047;28;20046;-72
2021/07/09 03:08:56;;;;;;;9.02;7.55;;;17.40;99.90;;;;;;4994608;28;20050;-72
2021/07/09 03:11:23;;;;;;;12.45;8.00;;;17.40;99.90;;;;;;4995298;28;20042;-72
2021/07/09 03:13:50;;;;;;;10.70;7.60;;;17.50;99.90;;;;;;4995044;28;20529;-72
2021/07/09 03:16:16;;;;;;;11.77;8.77;;;17.40;99.90;;;;;;4995548;28;20046;-72
2021/07/09 03:18:43;;;;;;;9.23;7.95;;;17.40;99.90;;;;;;4994822;28;20054;-72
2021/07/09 03:21:09;;;;;;;13.00;7.47;;;17.40;99.90;;;;;;4995187;28;20046;-73
2021/07/09 03:23:36;;;;;;;8.95;7.75;;;17.40;99.90;;;;;;4995566;28;20050;-73
2021/07/09 03:26:04;;;;;;;10.00;8.63;;;17.40;99.90;;;;;;4995484;28;20073;-73
2021/07/09 03:28:30;;;;;;;9.45;7.88;;;17.50;99.90;;;;;;4994149;28;20050;-73
2021/07/09 03:30:57;;;;;;;9.88;7.82;;;17.40;99.90;;;;;;4995100;28;20121;-72
2021/07/09 03:33:24;;;;;;;13.80;8.95;;;17.40;99.90;;;;;;4994549;28;20092;-74
2021/07/09 03:35:52;;;;;;;9.20;7.85;;;17.40;99.90;;;;;;4994555;28;20046;-71
2021/07/09 03:38:19;;;;;;;12.85;8.18;;;17.40;99.90;;;;;;4976415;28;20563;-70
2021/07/09 03:40:45;;;;;;;11.85;8.10;;;17.50;99.90;;;;;;4979832;28;20042;-72
2021/07/09 03:43:13;;;;;;;13.60;9.23;;;17.50;99.90;;;;;;4994364;28;20388;-70
2021/07/09 03:45:40;;;;;;;10.25;9.10;;;17.50;99.90;;;;;;4994588;28;20453;-71
2021/07/09 03:48:07;;;;;;;12.60;8.80;;;17.40;99.90;;;;;;4994566;28;20046;-69
2021/07/09 03:50:34;;;;;;;15.20;9.80;;;17.50;99.90;;;;;;4994036;28;20109;-74
2021/07/09 03:53:01;;;;;;;12.60;9.80;;;17.40;99.90;;;;;;4994503;28;20057;-74
2021/07/09 03:55:27;;;;;;;12.65;9.30;;;17.30;99.90;;;;;;4994623;28;20050;-78
2021/07/09 03:57:54;;;;;;;11.95;9.23;;;17.40;99.90;;;;;;4994748;28;20380;-75
2021/07/09 04:00:22;;;;;;;12.30;9.55;;;17.40;99.90;;;;;;4994795;28;20073;-77
2021/07/09 04:02:48;;;;;;;13.13;9.27;;;17.40;99.90;;;;;;4994646;28;20050;-74
2021/07/09 04:05:15;;;;;;;13.13;10.65;;;17.50;99.90;;;;;;4994089;28;20087;-69
2021/07/09 04:07:42;;;;;;;12.95;10.10;;;17.50;99.90;;;;;;4994132;28;20050;-71
2021/07/09 04:10:10;;;;;;;10.40;8.32;;;17.50;99.90;;;;;;4993388;28;20112;-71
2021/07/09 04:12:37;;;;;;;10.07;7.90;;;17.70;99.90;;;;;;4994319;28;20047;-68
2021/07/09 04:15:04;;;;;;;9.88;8.10;;;17.70;99.90;;;;;;4993494;28;20580;-70
2021/07/09 04:17:32;;;;;;;11.73;9.05;;;17.80;99.90;;;;;;4993904;28;20038;-67
2021/07/09 04:19:59;;;;;;;11.57;8.05;;;17.70;99.90;;;;;;4993506;28;20046;-75
2021/07/09 04:22:26;;;;;;;11.18;9.27;;;17.80;99.90;;;;;;4993299;28;20499;-68
2021/07/09 04:24:52;;;;;;;11.52;8.32;;;17.80;99.90;;;;;;4993678;28;20046;-68
2021/07/09 04:27:19;;;;;;;15.10;9.38;;;17.80;99.90;;;;;;4993878;28;20078;-72
2021/07/09 04:29:46;;;;;;;10.05;8.80;;;17.80;99.90;;;;;;4993072;28;20054;-70
2021/07/09 04:32:13;;;;;;;13.05;7.80;;;17.70;99.90;;;;;;4992911;28;20458;-72
2021/07/09 04:34:41;;;;;;;10.27;8.30;;;17.70;99.90;;;;;;4993832;28;20081;-75
2021/07/09 04:37:09;;;;;;;18.95;9.75;;;17.70;99.90;;;;;;4993409;28;20549;-74
2021/07/09 04:39:36;;;;;;;12.60;9.00;;;17.70;99.90;;;;;;4993188;28;20047;-75
2021/07/09 04:42:04;;;;;;;14.85;10.00;;;17.60;99.90;;;;;;4993242;28;20052;-72
2021/07/09 04:44:31;;;;;;;17.42;8.98;;;17.60;99.90;;;;;;4993376;28;20042;-76
2021/07/09 04:46:58;;;;;;;14.20;9.95;;;17.70;99.90;;;;;;4993683;28;20046;-74
2021/07/09 04:49:24;;;;;;;22.92;16.42;;;17.60;99.90;;;;;;4993354;28;20561;-72
2021/07/09 04:51:53;;;;;;;13.40;8.70;;;17.60;99.90;;;;;;4992997;28;20043;-74
2021/07/09 04:54:20;;;;;;;48.15;26.83;;;17.70;99.90;;;;;;4993749;28;20042;-72
2021/07/09 04:56:47;;;;;;;16.52;10.90;;;17.70;99.90;;;;;;4993468;28;20057;-70
2021/07/09 04:59:13;;;;;;;21.23;12.10;;;17.70;99.90;;;;;;4992526;28;20410;-69
2021/07/09 05:01:40;;;;;;;25.52;16.55;;;17.70;99.90;;;;;;4992849;28;20038;-70
2021/07/09 05:04:07;;;;;;;18.88;13.48;;;17.60;99.90;;;;;;4993212;28;20073;-71
2021/07/09 05:06:34;;;;;;;13.60;10.30;;;17.70;99.90;;;;;;4992574;28;20054;-73
2021/07/09 05:09:02;;;;;;;20.00;14.88;;;17.70;99.90;;;;;;4992558;28;20050;-75
2021/07/09 05:11:29;;;;;;;15.13;10.95;;;17.70;99.90;;;;;;4992608;28;20050;-70
2021/07/09 05:13:56;;;;;;;13.68;10.50;;;17.80;99.90;;;;;;4992762;28;20137;-70
2021/07/09 05:16:22;;;;;;;15.73;10.88;;;17.80;99.90;;;;;;4992319;28;20054;-75
2021/07/09 05:18:49;;;;;;;33.42;19.13;;;17.80;99.90;;;;;;4992420;28;20046;-76
2021/07/09 05:21:16;;;;;;;18.92;11.82;;;17.90;99.90;;;;;;4992744;28;20046;-76
2021/07/09 05:23:42;;;;;;;17.80;10.65;;;17.80;99.90;;;;;;4992066;28;20553;-73
2021/07/09 05:26:10;;;;;;;18.23;12.88;;;17.80;99.90;;;;;;4993312;28;20112;-74
2021/07/09 05:28:37;;;;;;;18.13;11.63;;;17.90;99.90;;;;;;4991504;28;20057;-68
2021/07/09 05:31:03;;;;;;;14.23;11.05;;;17.90;99.90;;;;;;4992592;28;20566;-76
2021/07/09 05:33:30;;;;;;;17.73;12.05;;;17.90;99.90;;;;;;4992708;28;20533;-77
2021/07/09 05:35:57;;;;;;;15.25;11.20;;;18.00;99.90;;;;;;4992181;28;20046;-73
2021/07/09 05:38:24;;;;;;;14.55;10.00;;;18.00;99.90;;;;;;4992050;28;20046;-76
2021/07/09 05:40:50;;;;;;;15.55;10.43;;;18.00;99.90;;;;;;4992130;28;20093;-74
2021/07/09 05:43:20;;;;;;;17.85;12.35;;;18.00;99.90;;;;;;4992646;28;20097;-73
2021/07/09 05:45:47;;;;;;;16.65;10.52;;;18.00;99.90;;;;;;4991306;28;20056;-74
2021/07/09 05:48:14;;;;;;;14.43;10.02;;;18.00;99.90;;;;;;4991981;28;20046;-73
2021/07/09 05:50:41;;;;;;;12.75;10.30;;;18.00;99.90;;;;;;4992068;28;20461;-74
2021/07/09 05:53:08;;;;;;;11.57;9.82;;;18.00;99.90;;;;;;4992509;28;20413;-74
2021/07/09 05:55:35;;;;;;;12.20;9.73;;;18.10;99.90;;;;;;4992249;28;20042;-71
2021/07/09 05:58:02;;;;;;;11.88;9.63;;;18.10;99.90;;;;;;4991807;28;20513;-74
2021/07/09 06:00:30;;;;;;;8.88;7.95;;;18.10;99.90;;;;;;4991080;28;20058;-74
2021/07/09 06:02:57;;;;;;;14.07;10.65;;;18.20;99.90;;;;;;4992068;28;20054;-74
2021/07/09 06:05:23;;;;;;;12.45;9.73;;;18.20;99.90;;;;;;4992432;28;20050;-71
2021/07/09 06:07:50;;;;;;;15.85;10.48;;;18.20;99.90;;;;;;4992145;28;20050;-75
2021/07/09 06:10:17;;;;;;;16.88;13.27;;;18.40;99.90;;;;;;4992225;28;20046;-73
2021/07/09 06:12:43;;;;;;;13.35;10.27;;;18.30;99.90;;;;;;4991638;28;20453;-73
2021/07/09 06:15:11;;;;;;;21.05;14.15;;;18.30;99.90;;;;;;4991893;28;20438;-71
2021/07/09 06:17:39;;;;;;;28.30;18.48;;;18.30;99.90;;;;;;4990522;28;20495;-74
2021/07/09 06:20:07;;;;;;;14.48;10.80;;;18.30;99.90;;;;;;4991331;28;20046;-73
2021/07/09 06:22:34;;;;;;;14.65;9.35;;;18.20;99.90;;;;;;4991565;28;20565;-72
2021/07/09 06:25:00;;;;;;;10.75;8.30;;;18.20;99.90;;;;;;4991962;28;20755;-71
2021/07/09 06:27:27;;;;;;;13.23;9.40;;;18.40;99.90;;;;;;4991689;28;20128;-69
2021/07/09 06:29:54;;;;;;;10.23;8.45;;;18.50;99.90;;;;;;4990596;28;20097;-72
2021/07/09 06:32:20;;;;;;;10.88;9.25;;;18.60;99.90;;;;;;4992012;28;20050;-72
2021/07/09 06:34:48;;;;;;;10.18;8.23;;;18.80;99.90;;;;;;4991880;28;20042;-72
2021/07/09 06:37:15;;;;;;;17.23;11.60;;;18.80;99.90;;;;;;4992101;28;20042;-73
2021/07/09 06:39:41;;;;;;;11.38;9.35;;;18.80;99.90;;;;;;4990839;28;20100;-70
2021/07/09 06:42:08;;;;;;;12.35;10.00;;;18.80;99.90;;;;;;4991631;28;20050;-72
2021/07/09 06:44:34;;;;;;;12.00;9.48;;;18.90;99.90;;;;;;4991196;28;20054;-70
2021/07/09 06:47:01;;;;;;;10.52;9.10;;;18.90;99.90;;;;;;4991595;28;20043;-72
2021/07/09 06:49:28;;;;;;;13.88;10.30;;;18.90;99.90;;;;;;4990695;28;20495;-72
2021/07/09 06:51:56;;;;;;;11.77;9.38;;;18.90;99.90;;;;;;4991995;28;20461;-69
2021/07/09 06:54:22;;;;;;;12.65;9.20;;;19.00;99.90;;;;;;4991857;28;20046;-72
2021/07/09 06:56:49;;;;;;;13.27;10.27;;;18.80;99.90;;;;;;4991465;28;20046;-71
2021/07/09 06:59:15;;;;;;;12.05;9.95;;;18.80;99.90;;;;;;4990791;28;20109;-71
2021/07/09 07:01:42;;;;;;;16.55;11.07;;;18.90;99.90;;;;;;4991759;28;20042;-72
2021/07/09 07:04:09;;;;;;;16.20;12.68;;;18.90;99.90;;;;;;4992336;28;20113;-72
2021/07/09 07:06:36;;;;;;;14.68;11.70;;;18.90;99.90;;;;;;4995664;28;20042;-72
2021/07/09 07:09:04;;;;;;;13.70;11.60;;;18.90;99.90;;;;;;4994156;28;20058;-73
2021/07/09 07:11:31;;;;;;;12.95;9.68;;;18.90;99.90;;;;;;4994565;28;20089;-72
2021/07/09 07:13:57;;;;;;;13.20;9.68;;;19.00;99.90;;;;;;4994854;28;20109;-72
2021/07/09 07:16:24;;;;;;;16.20;10.98;;;18.90;99.90;;;;;;4994607;28;20469;-72
2021/07/09 07:18:51;;;;;;;12.35;10.15;;;18.90;99.90;;;;;;4994467;28;20043;-72
2021/07/09 07:21:18;;;;;;;10.82;9.70;;;18.90;99.90;;;;;;4995043;28;20509;-76
2021/07/09 07:23:44;;;;;;;24.60;16.85;;;19.00;99.90;;;;;;4995190;28;20128;-75
2021/07/09 07:26:13;;;;;;;10.65;9.55;;;19.00;99.90;;;;;;4995064;28;20491;-74
2021/07/09 07:28:40;;;;;;;13.02;9.25;;;19.00;99.90;;;;;;4994667;28;20758;-74
2021/07/09 07:31:07;;;;;;;11.55;10.30;;;19.00;99.90;;;;;;4995095;28;20128;-75
2021/07/09 07:33:34;;;;;;;12.93;9.77;;;19.10;99.90;;;;;;4995257;28;20050;-73
2021/07/09 07:36:01;;;;;;;13.23;10.35;;;19.10;99.90;;;;;;4994837;28;20038;-75
2021/07/09 07:38:27;;;;;;;11.50;10.35;;;19.20;99.90;;;;;;4994189;28;20098;-75
2021/07/09 07:40:55;;;;;;;12.38;10.40;;;19.20;99.90;;;;;;4993925;28;20054;-78
2021/07/09 07:43:23;;;;;;;11.95;10.13;;;19.20;99.90;;;;;;4994945;28;20050;-77
2021/07/09 07:45:49;;;;;;;11.65;10.45;;;19.30;99.90;;;;;;4994349;28;20594;-74
2021/07/09 07:48:16;;;;;;;13.15;10.70;;;19.40;99.90;;;;;;4994013;28;20046;-73
2021/07/09 07:50:43;;;;;;;10.48;9.18;;;19.50;99.90;;;;;;4985254;28;20086;-73
2021/07/09 07:53:10;;;;;;;11.52;10.30;;;19.80;99.90;;;;;;4974962;28;20054;-74
2021/07/09 07:55:37;;;;;;;10.48;9.50;;;20.10;99.90;;;;;;4989265;28;20046;-74
2021/07/09 07:58:04;;;;;;;11.43;8.88;;;20.30;99.90;;;;;;4994422;28;20050;-76
2021/07/09 08:00:33;;;;;;;10.70;9.60;;;20.40;99.90;;;;;;4993404;28;20398;-71
2021/07/09 08:03:00;;;;;;;11.57;9.68;;;20.50;99.90;;;;;;4994068;28;20089;-72
2021/07/09 08:05:26;;;;;;;10.10;9.10;;;20.40;99.90;;;;;;4994133;28;20093;-74
2021/07/09 08:07:54;;;;;;;10.13;8.35;;;20.30;99.90;;;;;;4993794;28;20450;-73
2021/07/09 08:10:23;;;;;;;9.85;8.95;;;20.40;99.90;;;;;;4993695;28;20184;-75
2021/07/09 08:12:49;;;;;;;9.40;8.10;;;20.40;99.90;;;;;;4994422;28;20437;-73
2021/07/09 08:15:16;;;;;;;7.75;7.05;;;20.50;99.90;;;;;;4993531;28;20482;-74
2021/07/09 08:17:44;;;;;;;9.60;8.05;;;20.60;99.90;;;;;;4993687;28;20050;-70
2021/07/09 08:20:11;;;;;;;8.90;7.57;;;20.60;99.90;;;;;;4982885;28;20097;-72
2021/07/09 08:22:38;;;;;;;8.50;7.22;;;20.80;99.90;;;;;;4974521;28;20446;-71
2021/07/09 08:25:06;;;;;;;7.15;6.55;;;20.90;99.90;;;;;;4974749;28;20106;-70
2021/07/09 08:27:33;;;;;;;8.73;7.40;;;21.00;99.90;;;;;;4993000;28;20093;-71
2021/07/09 08:29:59;;;;;;;8.13;7.32;;;21.00;99.90;;;;;;4993238;28;20046;-71
2021/07/09 08:32:26;;;;;;;7.35;6.53;;;21.20;99.90;;;;;;4993742;28;20470;-71
2021/07/09 08:34:54;;;;;;;6.43;5.82;;;21.30;99.90;;;;;;4993812;28;20042;-70
2021/07/09 08:37:21;;;;;;;6.65;5.97;;;21.20;99.90;;;;;;4993498;28;20101;-75
2021/07/09 08:39:48;;;;;;;6.85;6.25;;;21.30;99.90;;;;;;4993281;28;20391;-71
2021/07/09 08:42:14;;;;;;;6.82;6.13;;;21.20;99.90;;;;;;4993611;28;20042;-73
2021/07/09 08:44:41;;;;;;;7.15;6.53;;;21.20;99.90;;;;;;4993847;28;20077;-70
2021/07/09 08:47:08;;;;;;;7.82;7.05;;;21.00;99.90;;;;;;4993082;28;20076;-74
2021/07/09 08:49:35;;;;;;;8.20;6.38;;;21.00;99.90;;;;;;4992421;28;20532;-71
2021/07/09 08:52:04;;;;;;;8.63;6.57;;;21.00;99.90;;;;;;4993605;28;20098;-73
2021/07/09 08:54:30;;;;;;;6.65;6.05;;;21.00;99.90;;;;;;4993171;28;20112;-74
2021/07/09 08:56:57;;;;;;;8.00;6.53;;;21.00;99.90;;;;;;4993038;28;20104;-74
2021/07/09 08:59:24;;;;;;;6.53;5.70;;;21.20;99.90;;;;;;4992287;28;20455;-75
2021/07/09 09:01:52;;;;;;;6.10;5.50;;;21.40;99.90;;;;;;4992069;28;20038;-75
2021/07/09 09:04:26;;;;;;;5.65;5.15;;;21.50;99.90;;;;;;4980609;28;20105;-71
2021/07/09 09:07:00;;;;;;;5.45;5.05;;;21.60;99.90;;;;;;4988648;28;20050;-76
2021/07/09 09:09:28;;;;;;;6.93;5.43;;;21.70;99.90;;;;;;4992459;28;20046;-72
2021/07/09 09:12:08;;;;;;;6.32;5.38;;;21.80;99.90;;;;;;4992601;28;20109;-70
2021/07/09 09:14:36;;;;;;;6.53;6.03;;;21.70;99.90;;;;;;4993290;28;20573;-71
2021/07/09 09:17:23;;;;;;;7.53;6.45;;;21.70;99.90;;;;;;4992462;28;20054;-74
2021/07/09 09:20:12;;;;;;;6.82;6.13;;;21.60;99.90;;;;;;4972880;28;20046;-72
2021/07/09 09:22:54;;;;;;;6.60;6.00;;;21.50;99.90;;;;;;4973194;28;20121;-76
2021/07/09 09:25:25;;;;;;;7.13;6.53;;;21.50;99.90;;;;;;4980969;28;20046;-73
2021/07/09 09:28:07;;;;;;;7.60;6.70;;;21.40;99.90;;;;;;4983712;28;20100;-76
2021/07/09 09:30:35;;;;;;;8.90;7.53;;;21.40;99.90;;;;;;4991729;28;20046;-72
2021/07/09 09:33:05;;;;;;;9.05;7.43;;;21.40;99.90;;;;;;4992567;28;20557;-73
2021/07/09 09:35:34;;;;;;;8.32;7.63;;;21.40;99.90;;;;;;4992325;28;20046;-71
2021/07/09 09:38:05;;;;;;;10.07;9.18;;;21.30;99.90;;;;;;4992590;28;20134;-74
2021/07/09 09:40:34;;;;;;;12.40;9.27;;;21.20;99.90;;;;;;4992030;28;20070;-74
2021/07/09 09:43:07;;;;;;;12.68;10.48;;;21.10;99.90;;;;;;4992250;28;20035;-71
2021/07/09 09:45:34;;;;;;;11.45;10.15;;;21.20;99.90;;;;;;4992348;28;20050;-70
2021/07/09 09:48:05;;;;;;;13.27;11.80;;;21.20;99.90;;;;;;4992361;28;20038;-69
2021/07/09 09:50:40;;;;;;;11.77;10.48;;;21.20;99.90;;;;;;4991436;28;20050;-71
2021/07/09 09:53:07;;;;;;;12.93;10.60;;;21.20;99.90;;;;;;4992651;28;20046;-70
2021/07/09 09:55:35;;;;;;;12.75;11.45;;;21.10;99.90;;;;;;4992011;28;20047;-71
2021/07/09 09:58:09;;;;;;;14.30;12.10;;;21.10;99.90;;;;;;4992321;28;20042;-69
2021/07/09 10:00:37;;;;;;;16.73;13.68;;;21.10;99.90;;;;;;4991291;28;20104;-70
2021/07/09 10:03:05;;;;;;;16.20;14.02;;;21.00;99.90;;;;;;4992185;28;20668;-71
2021/07/09 10:05:34;;;;;;;15.82;13.52;;;20.90;99.90;;;;;;4992249;28;20042;-71
2021/07/09 10:08:02;;;;;;;15.60;13.57;;;20.90;99.90;;;;;;4992127;28;20050;-70
2021/07/09 10:10:31;;;;;;;16.83;14.25;;;20.80;99.90;;;;;;4991692;28;20046;-70
2021/07/09 10:13:00;;;;;;;20.58;16.52;;;20.80;99.90;;;;;;4992781;28;20050;-78
2021/07/09 10:15:29;;;;;;;19.58;15.48;;;20.70;99.90;;;;;;4992391;28;20491;-71
2021/07/09 10:17:56;;;;;;;18.63;14.20;;;20.70;99.90;;;;;;4992045;28;20046;-71
2021/07/09 10:20:24;;;;;;;19.95;15.25;;;20.60;99.90;;;;;;4991742;28;20046;-71
2021/07/09 10:22:51;;;;;;;20.10;15.10;;;20.60;99.90;;;;;;4992192;28;20046;-72
2021/07/09 10:25:20;;;;;;;19.90;16.08;;;20.40;99.90;;;;;;4992998;28;20046;-69
2021/07/09 10:27:47;;;;;;;21.80;15.88;;;20.40;99.90;;;;;;4992754;28;20050;-72
2021/07/09 10:30:15;;;;;;;20.35;16.45;;;20.40;99.90;;;;;;4991895;28;20104;-71
2021/07/09 10:32:43;;;;;;;24.20;18.02;;;20.40;99.90;;;;;;4992574;28;20542;-73
2021/07/09 10:35:11;;;;;;;20.02;15.40;;;20.40;99.90;;;;;;4992806;28;20108;-70
2021/07/09 10:37:39;;;;;;;23.83;16.90;;;20.40;99.90;;;;;;4992830;28;20618;-71
2021/07/09 10:40:12;;;;;;;25.67;18.67;;;20.40;99.90;;;;;;4996015;28;20047;-71
2021/07/09 10:42:42;;;;;;;25.67;18.30;;;20.30;99.90;;;;;;4996118;28;20052;-72
2021/07/09 10:45:20;;;;;;;26.95;17.83;;;20.30;99.90;;;;;;4995675;28;20054;-72
2021/07/09 10:47:52;;;;;;;28.88;19.30;;;20.30;99.90;;;;;;4995780;28;20047;-70
2021/07/09 10:50:21;;;;;;;24.15;17.92;;;20.20;99.90;;;;;;4994604;28;20093;-71
2021/07/09 10:52:58;;;;;;;27.70;19.45;;;20.30;99.90;;;;;;4995691;28;20046;-70
2021/07/09 10:55:49;;;;;;;24.17;18.42;;;20.30;99.90;;;;;;4995973;28;20050;-71
2021/07/09 10:58:27;;;;;;;32.03;20.65;;;20.20;99.90;;;;;;4995165;28;20050;-70
2021/07/09 11:00:57;;;;;;;33.85;20.40;;;20.20;99.90;;;;;;4995159;28;20054;-70
2021/07/09 11:03:26;;;;;;;31.83;19.65;;;20.30;99.90;;;;;;4994452;28;20049;-73
2021/07/09 11:05:54;;;;;;;28.77;20.27;;;20.30;99.90;;;;;;4976053;28;20047;-71
2021/07/09 11:08:52;;;;;;;27.35;19.13;;;20.30;99.90;;;;;;4992249;28;20042;-73
2021/07/09 11:11:31;;;;;;;29.50;19.83;;;20.40;99.90;;;;;;4995068;28;20065;-75
2021/07/09 11:14:01;;;;;;;27.98;20.00;;;20.40;99.90;;;;;;4984786;28;20133;-72
2021/07/09 11:16:31;;;;;;;29.48;20.60;;;20.50;99.90;;;;;;4995005;28;20038;-70
2021/07/09 11:19:03;;;;;;;32.45;20.75;;;20.40;99.90;;;;;;4994809;28;20077;-74
2021/07/09 11:22:04;;;;;;;27.60;21.20;;;20.40;99.90;;;;;;4995495;28;20089;-71
2021/07/09 11:24:33;;;;;;;30.23;19.35;;;20.50;99.90;;;;;;4996327;28;20109;-73
2021/07/09 11:27:01;;;;;;;27.70;19.73;;;20.60;99.90;;;;;;4995595;28;20046;-71
2021/07/09 11:29:33;;;;;;;40.15;24.55;;;20.80;99.90;;;;;;4994668;28;20054;-71
2021/07/09 11:32:04;;;;;;;29.85;20.33;;;21.00;99.90;;;;;;4994532;28;20054;-70
2021/07/09 11:34:32;;;;;;;26.00;17.40;;;21.30;99.90;;;;;;4995065;28;20101;-72
2021/07/09 11:37:01;;;;;;;21.40;16.65;;;21.60;99.90;;;;;;4995168;28;20042;-73
2021/07/09 11:39:29;;;;;;;23.98;17.10;;;21.90;99.90;;;;;;4988938;28;20118;-71
2021/07/09 11:41:59;;;;;;;19.60;14.80;;;22.30;99.90;;;;;;4981747;28;20050;-71
2021/07/09 11:44:29;;;;;;;23.10;15.77;;;22.70;99.90;;;;;;4986141;28;20387;-70
2021/07/09 11:46:57;;;;;;;20.10;14.80;;;22.90;99.90;;;;;;4994369;28;20042;-71
2021/07/09 11:49:27;;;;;;;21.35;15.60;;;22.90;99.90;;;;;;4994107;28;20105;-71
2021/07/09 11:51:56;;;;;;;17.45;14.68;;;22.90;99.90;;;;;;4993943;28;20487;-71
2021/07/09 11:54:25;;;;;;;16.45;12.88;;;23.10;99.90;;;;;;4994796;28;20422;-72
2021/07/09 11:56:53;;;;;;;15.82;11.75;;;23.20;99.90;;;;;;4994393;28;20053;-68
2021/07/09 11:59:21;;;;;;;15.00;11.48;;;23.30;99.90;;;;;;4993031;28;20046;-69
2021/07/09 12:02:02;;;;;;;13.10;11.68;;;23.40;99.90;;;;;;4995764;28;20046;-69
2021/07/09 12:04:31;;;;;;;12.60;10.93;;;23.40;99.90;;;;;;4994282;28;20097;-70
2021/07/09 12:07:23;;;;;;;15.50;11.20;;;23.50;99.90;;;;;;4994257;28;20047;-72
2021/07/09 12:09:52;;;;;;;14.23;10.65;;;23.50;99.90;;;;;;4993878;28;20081;-72
2021/07/09 12:12:20;;;;;;;13.35;11.90;;;23.60;99.90;;;;;;4993988;28;20046;-72
2021/07/09 12:15:08;;;;;;;12.10;10.75;;;23.70;99.90;;;;;;4994213;28;20046;-71
2021/07/09 12:17:37;;;;;;;16.85;13.77;;;23.80;99.90;;;;;;4994088;28;20046;-72
2021/07/09 12:20:09;;;;;;;15.63;13.07;;;24.00;99.90;;;;;;4993800;28;20042;-71
2021/07/09 12:22:37;;;;;;;14.10;11.77;;;24.20;99.90;;;;;;4994566;28;20465;-71
2021/07/09 12:25:08;;;;;;;11.82;10.38;;;24.70;99.90;;;;;;4994095;28;20051;-71
2021/07/09 12:27:36;;;;;;;11.32;10.10;;;25.50;99.90;;;;;;4993990;28;20085;-70
2021/07/09 12:30:06;;;;;;;10.00;9.10;;;26.40;99.90;;;;;;4993293;28;20046;-70
2021/07/09 12:32:33;;;;;;;9.00;8.20;;;26.80;99.90;;;;;;4994002;28;20093;-72
2021/07/09 12:35:09;;;;;;;10.13;8.13;;;27.50;99.90;;;;;;4993751;28;20077;-71
2021/07/09 12:37:36;;;;;;;7.13;6.53;;;28.40;99.90;;;;;;4994135;28;20112;-73
2021/07/09 12:40:09;;;;;;;7.40;6.70;;;29.20;99.90;;;;;;4993913;28;20050;-74
2021/07/09 12:42:38;;;;;;;8.55;7.70;;;29.80;99.90;;;;;;4994564;28;20050;-73